Time,TemperatureF,DewpointF,PressureIn,WindDirection,WindDirectionDegrees,WindSpeedMPH,WindSpeedGustMPH,Humidity,HourlyPrecipIn,Conditions,Clouds,dailyrainin,SoftwareType,DateUTC
2013-10-20 00:12:00,43.0,38.0,30.01,ESE,114,0.0,0.0,83,0.00,,,0.00,,2013-10-20 06:12:00,
2013-10-20 00:22:00,43.0,38.0,30.01,ESE,114,0.0,0.0,82,0.00,,,0.00,,2013-10-20 06:22:00,
2013-10-20 00:52:00,42.0,38.0,30.01,ESE,114,0.0,0.0,85,0.00,,,0.00,,2013-10-20 06:52:00,
2013-10-20 01:12:00,42.0,38.0,30.01,ESE,115,0.0,0.0,85,0.00,,,0.00,,2013-10-20 07:12:00,
2013-10-20 01:22:00,42.0,38.0,30.01,ESE,114,0.0,0.0,86,0.00,,,0.00,,2013-10-20 07:22:00,
2013-10-20 01:42:00,41.0,37.0,30.01,ESE,115,0.0,0.0,86,0.00,,,0.00,,2013-10-20 07:42:00,
2013-10-20 01:52:00,41.0,37.0,30.00,ESE,114,0.0,0.0,87,0.00,,,0.00,,2013-10-20 07:52:00,
2013-10-20 02:11:00,41.0,38.0,30.00,ESE,115,0.0,1.0,88,0.00,,,0.00,,2013-10-20 08:11:00,
2013-10-20 02:22:00,40.0,36.0,30.00,ESE,115,0.0,0.0,87,0.00,,,0.00,,2013-10-20 08:22:00,
2013-10-20 02:42:00,40.0,37.0,30.00,ESE,115,0.0,0.0,88,0.00,,,0.00,,2013-10-20 08:42:00,
2013-10-20 02:52:00,40.0,36.0,30.00,ESE,115,0.0,0.0,86,0.00,,,0.00,,2013-10-20 08:52:00,
2013-10-20 03:11:00,39.0,35.0,30.00,ESE,115,0.0,0.0,86,0.00,,,0.00,,2013-10-20 09:11:00,
2013-10-20 03:21:00,40.0,36.0,29.99,East,91,0.0,1.0,86,0.00,,,0.00,,2013-10-20 09:21:00,
2013-10-20 03:43:00,40.0,36.0,29.99,East,91,0.0,0.0,86,0.00,,,0.00,,2013-10-20 09:43:00,
2013-10-20 03:53:00,39.0,35.0,29.99,East,90,0.0,0.0,84,0.00,,,0.00,,2013-10-20 09:53:00,
2013-10-20 04:12:00,39.0,34.0,29.99,ENE,78,0.0,0.0,82,0.00,,,0.00,,2013-10-20 10:12:00,
2013-10-20 04:23:00,39.0,34.0,29.99,ENE,77,0.0,0.0,81,0.00,,,0.00,,2013-10-20 10:23:00,
2013-10-20 04:53:00,39.0,33.0,29.99,North,352,0.0,1.0,79,0.00,,,0.00,,2013-10-20 10:53:00,
2013-10-20 05:12:00,39.0,32.0,29.99,North,359,0.0,2.0,77,0.00,,,0.00,,2013-10-20 11:12:00,
2013-10-20 05:22:00,39.0,31.0,30.00,North,354,0.0,1.0,74,0.00,,,0.00,,2013-10-20 11:22:00,
2013-10-20 05:42:00,39.0,32.0,30.00,North,354,0.0,0.0,76,0.00,,,0.00,,2013-10-20 11:42:00,
2013-10-20 05:52:00,38.0,32.0,30.00,North,354,0.0,0.0,78,0.00,,,0.00,,2013-10-20 11:52:00,
2013-10-20 06:11:00,37.0,31.0,30.00,North,354,0.0,0.0,80,0.00,,,0.00,,2013-10-20 12:11:00,
2013-10-20 06:21:00,37.0,32.0,30.00,North,354,0.0,0.0,81,0.00,,,0.00,,2013-10-20 12:21:00,
2013-10-20 06:42:00,37.0,32.0,30.00,North,354,0.0,0.0,82,0.00,,,0.00,,2013-10-20 12:42:00,
2013-10-20 06:52:00,36.0,31.0,30.00,North,354,0.0,0.0,83,0.00,,,0.00,,2013-10-20 12:52:00,
2013-10-20 07:11:00,36.0,32.0,30.00,North,354,0.0,0.0,86,0.00,,,0.00,,2013-10-20 13:11:00,
2013-10-20 07:21:00,36.0,31.0,30.00,NNE,13,0.0,1.0,81,0.00,,,0.00,,2013-10-20 13:21:00,
2013-10-20 07:42:00,37.0,31.0,30.00,NNE,13,0.0,1.0,80,0.00,,,0.00,,2013-10-20 13:42:00,
2013-10-20 07:52:00,37.0,30.0,30.01,North,5,0.0,1.0,77,0.00,,,0.00,,2013-10-20 13:52:00,
2013-10-20 08:12:00,38.0,31.0,30.01,NNW,347,0.0,2.0,77,0.00,,,0.00,,2013-10-20 14:12:00,
2013-10-20 08:22:00,39.0,31.0,30.01,NNW,330,0.0,1.0,72,0.00,,,0.00,,2013-10-20 14:22:00,
2013-10-20 08:42:00,40.0,31.0,30.01,North,349,0.0,1.0,69,0.00,,,0.00,,2013-10-20 14:42:00,
2013-10-20 08:52:00,41.0,31.0,30.02,NNW,347,0.0,3.0,67,0.00,,,0.00,,2013-10-20 14:52:00,
2013-10-20 09:11:00,43.0,30.0,30.02,NNW,348,1.0,5.0,61,0.00,,,0.00,,2013-10-20 15:11:00,
2013-10-20 09:22:00,45.0,32.0,30.02,North,1,0.0,3.0,59,0.00,,,0.00,,2013-10-20 15:22:00,
2013-10-20 09:44:00,47.0,33.0,30.02,NNE,30,0.0,4.0,57,0.00,,,0.00,,2013-10-20 15:44:00,
2013-10-20 09:54:00,49.0,33.0,30.02,NNE,16,0.0,5.0,54,0.00,,,0.00,,2013-10-20 15:54:00,
2013-10-20 10:14:00,52.0,33.0,30.02,NE,46,1.0,4.0,49,0.00,,,0.00,,2013-10-20 16:14:00,
2013-10-20 10:24:00,54.0,35.0,30.01,NE,42,0.0,3.0,48,0.00,,,0.00,,2013-10-20 16:24:00,
2013-10-20 10:43:00,56.0,35.0,30.01,NNE,31,0.0,1.0,45,0.00,,,0.00,,2013-10-20 16:43:00,
2013-10-20 10:54:00,58.0,34.0,30.00,NNW,346,0.0,1.0,40,0.00,,,0.00,,2013-10-20 16:54:00,
2013-10-20 11:12:00,60.0,32.0,29.99,NNE,20,0.0,1.0,35,0.00,,,0.00,,2013-10-20 17:12:00,
2013-10-20 11:23:00,63.0,34.0,29.98,NE,46,0.0,1.0,34,0.00,,,0.00,,2013-10-20 17:23:00,
2013-10-20 11:42:00,65.0,34.0,29.97,NE,46,0.0,1.0,32,0.00,,,0.00,,2013-10-20 17:42:00,
2013-10-20 11:52:00,67.0,34.0,29.97,West,263,0.0,1.0,29,0.00,,,0.00,,2013-10-20 17:52:00,
2013-10-20 12:12:00,68.0,35.0,29.96,WNW,295,0.0,1.0,29,0.00,,,0.00,,2013-10-20 18:12:00,
2013-10-20 12:22:00,68.0,33.0,29.96,SE,131,0.0,2.0,27,0.00,,,0.00,,2013-10-20 18:22:00,
2013-10-20 12:42:00,70.0,32.0,29.94,WSW,245,0.0,1.0,24,0.00,,,0.00,,2013-10-20 18:42:00,
2013-10-20 12:52:00,72.0,30.0,29.93,SSW,197,1.0,4.0,21,0.00,,,0.00,,2013-10-20 18:52:00,
2013-10-20 13:12:00,73.0,33.0,29.92,NNE,26,0.0,2.0,23,0.00,,,0.00,,2013-10-20 19:12:00,
2013-10-20 13:22:00,73.0,30.0,29.91,South,177,0.0,3.0,20,0.00,,,0.00,,2013-10-20 19:22:00,
2013-10-20 13:42:00,75.0,31.0,29.90,SSW,193,0.0,4.0,20,0.00,,,0.00,,2013-10-20 19:42:00,
2013-10-20 13:52:00,75.0,34.0,29.88,WSW,240,0.0,3.0,22,0.00,,,0.00,,2013-10-20 19:52:00,
2013-10-20 14:11:00,76.0,27.0,29.87,SSE,158,1.0,6.0,16,0.00,,,0.00,,2013-10-20 20:11:00,
2013-10-20 14:22:00,76.0,28.0,29.86,ESE,105,0.0,8.0,17,0.00,,,0.00,,2013-10-20 20:22:00,
2013-10-20 14:43:00,76.0,28.0,29.85,North,355,1.0,5.0,17,0.00,,,0.00,,2013-10-20 20:43:00,
2013-10-20 14:52:00,76.0,23.0,29.85,ENE,76,0.0,6.0,14,0.00,,,0.00,,2013-10-20 20:52:00,
2013-10-20 15:21:00,76.0,23.0,29.83,South,169,0.0,8.0,14,0.00,,,0.00,,2013-10-20 21:21:00,
2013-10-20 15:34:00,76.0,23.0,29.83,South,169,0.0,8.0,14,0.00,,,0.00,,2013-10-20 21:34:00,
2013-10-20 15:44:00,76.0,23.0,29.83,South,169,0.0,8.0,14,0.00,,,0.00,,2013-10-20 21:44:00,
2013-10-20 20:12:00,63.0,19.0,29.82,East,91,0.0,2.0,18,0.00,,,0.00,,2013-10-21 02:12:00,
2013-10-20 20:42:00,60.0,20.0,29.82,East,85,0.0,1.0,21,0.00,,,0.00,,2013-10-21 02:42:00,
2013-10-20 20:52:00,60.0,21.0,29.83,East,91,0.0,1.0,22,0.00,,,0.00,,2013-10-21 02:52:00,
2013-10-20 21:22:00,60.0,21.0,29.83,SE,131,0.0,1.0,22,0.00,,,0.00,,2013-10-21 03:22:00,
2013-10-20 21:45:00,59.0,20.0,29.83,ESE,105,0.0,1.0,22,0.00,,,0.00,,2013-10-21 03:45:00,
2013-10-20 21:54:00,60.0,20.0,29.83,SE,126,0.0,1.0,21,0.00,,,0.00,,2013-10-21 03:54:00,
2013-10-20 22:13:00,61.0,20.0,29.84,ENE,60,0.0,2.0,20,0.00,,,0.00,,2013-10-21 04:13:00,
2013-10-20 22:24:00,60.0,18.0,29.84,SE,127,0.0,1.0,19,0.00,,,0.00,,2013-10-21 04:24:00,
2013-10-20 22:44:00,59.0,22.0,29.84,NE,54,0.0,1.0,24,0.00,,,0.00,,2013-10-21 04:44:00,
2013-10-20 22:53:00,55.0,22.0,29.85,NE,54,0.0,1.0,27,0.00,,,0.00,,2013-10-21 04:53:00,
2013-10-20 23:13:00,54.0,21.0,29.85,East,94,0.0,1.0,27,0.00,,,0.00,,2013-10-21 05:13:00,